sensor_id;sensor_type;location;lat;lon;timestamp;pressure;altitude;pressure_sealevel;temperature
77331;BMP280;66405;48.328;7.820;2022-12-29T00:01:23;99465.84;;;13.67
77331;BMP280;66405;48.328;7.820;2022-12-29T00:03:48;99465.09;;;13.67
77331;BMP280;66405;48.328;7.820;2022-12-29T00:06:14;99467.06;;;13.66
77331;BMP280;66405;48.328;7.820;2022-12-29T00:08:39;99468.28;;;13.65
77331;BMP280;66405;48.328;7.820;2022-12-29T00:11:06;99465.56;;;13.65
77331;BMP280;66405;48.328;7.820;2022-12-29T00:13:32;99476.88;;;13.64
77331;BMP280;66405;48.328;7.820;2022-12-29T00:16:16;99474.66;;;13.62
77331;BMP280;66405;48.328;7.820;2022-12-29T00:18:42;99469.72;;;13.61
77331;BMP280;66405;48.328;7.820;2022-12-29T00:21:13;99463.28;;;13.58
77331;BMP280;66405;48.328;7.820;2022-12-29T00:23:58;99470.66;;;13.57
77331;BMP280;66405;48.328;7.820;2022-12-29T00:26:42;99467.41;;;13.53
77331;BMP280;66405;48.328;7.820;2022-12-29T00:29:25;99467.13;;;13.51
77331;BMP280;66405;48.328;7.820;2022-12-29T00:32:10;99454.78;;;13.50
77331;BMP280;66405;48.328;7.820;2022-12-29T00:34:54;99464.16;;;13.49
77331;BMP280;66405;48.328;7.820;2022-12-29T00:37:40;99463.41;;;13.49
77331;BMP280;66405;48.328;7.820;2022-12-29T00:40:25;99461.91;;;13.48
77331;BMP280;66405;48.328;7.820;2022-12-29T00:43:09;99461.63;;;13.46
77331;BMP280;66405;48.328;7.820;2022-12-29T00:45:53;99457.16;;;13.43
77331;BMP280;66405;48.328;7.820;2022-12-29T00:48:18;99461.34;;;13.44
77331;BMP280;66405;48.328;7.820;2022-12-29T00:51:04;99456.63;;;13.38
77331;BMP280;66405;48.328;7.820;2022-12-29T00:53:30;99456.81;;;13.35
77331;BMP280;66405;48.328;7.820;2022-12-29T00:55:55;99471.13;;;13.35
77331;BMP280;66405;48.328;7.820;2022-12-29T00:58:21;99470.38;;;13.35
77331;BMP280;66405;48.328;7.820;2022-12-29T01:00:46;99471.63;;;13.34
77331;BMP280;66405;48.328;7.820;2022-12-29T01:03:12;99472.53;;;13.31
77331;BMP280;66405;48.328;7.820;2022-12-29T01:05:37;99480.69;;;13.31
77331;BMP280;66405;48.328;7.820;2022-12-29T01:08:03;99484.34;;;13.28
77331;BMP280;66405;48.328;7.820;2022-12-29T01:10:28;99487.53;;;13.26
77331;BMP280;66405;48.328;7.820;2022-12-29T01:12:54;99482.13;;;13.26
77331;BMP280;66405;48.328;7.820;2022-12-29T01:15:19;99473.97;;;13.26
77331;BMP280;66405;48.328;7.820;2022-12-29T01:17:47;99479.41;;;13.26
77331;BMP280;66405;48.328;7.820;2022-12-29T01:20:12;99485.13;;;13.28
77331;BMP280;66405;48.328;7.820;2022-12-29T01:22:38;99483.31;;;13.25
77331;BMP280;66405;48.328;7.820;2022-12-29T01:25:05;99479.63;;;13.22
77331;BMP280;66405;48.328;7.820;2022-12-29T01:27:30;99484.03;;;13.20
77331;BMP280;66405;48.328;7.820;2022-12-29T01:29:56;99490.09;;;13.15
77331;BMP280;66405;48.328;7.820;2022-12-29T01:32:22;99488.31;;;13.12
77331;BMP280;66405;48.328;7.820;2022-12-29T01:34:48;99488.53;;;13.08
77331;BMP280;66405;48.328;7.820;2022-12-29T01:37:14;99503.78;;;13.05
77331;BMP280;66405;48.328;7.820;2022-12-29T01:39:39;99492.38;;;13.01
77331;BMP280;66405;48.328;7.820;2022-12-29T01:42:05;99504.72;;;13.02
77331;BMP280;66405;48.328;7.820;2022-12-29T01:44:53;99501.53;;;13.04
77331;BMP280;66405;48.328;7.820;2022-12-29T01:47:55;99501.06;;;13.05
77331;BMP280;66405;48.328;7.820;2022-12-29T01:50:52;99514.16;;;13.07
77331;BMP280;66405;48.328;7.820;2022-12-29T01:53:21;99514.44;;;13.09
77331;BMP280;66405;48.328;7.820;2022-12-29T01:55:54;99501.63;;;13.10
77331;BMP280;66405;48.328;7.820;2022-12-29T01:58:22;99499.94;;;13.12
77331;BMP280;66405;48.328;7.820;2022-12-29T02:00:49;99510.78;;;13.12
77331;BMP280;66405;48.328;7.820;2022-12-29T02:03:17;99516.19;;;13.12
77331;BMP280;66405;48.328;7.820;2022-12-29T02:06:08;99518.44;;;13.14
77331;BMP280;66405;48.328;7.820;2022-12-29T02:08:37;99511.81;;;13.15
77331;BMP280;66405;48.328;7.820;2022-12-29T02:11:03;99513.78;;;13.14
77331;BMP280;66405;48.328;7.820;2022-12-29T02:13:33;99517.22;;;13.15
77331;BMP280;66405;48.328;7.820;2022-12-29T02:18:43;99519.22;;;13.14
77331;BMP280;66405;48.328;7.820;2022-12-29T02:39:43;99507.31;;;13.12
77331;BMP280;66405;48.328;7.820;2022-12-29T02:42:50;99507.31;;;13.12
77331;BMP280;66405;48.328;7.820;2022-12-29T02:45:41;99488.31;;;13.12
77331;BMP280;66405;48.328;7.820;2022-12-29T02:48:18;99476.72;;;13.11
77331;BMP280;66405;48.328;7.820;2022-12-29T02:50:59;99477.19;;;13.10
77331;BMP280;66405;48.328;7.820;2022-12-29T02:53:26;99471.03;;;13.09
77331;BMP280;66405;48.328;7.820;2022-12-29T02:56:11;99479.66;;;13.08
77331;BMP280;66405;48.328;7.820;2022-12-29T02:58:36;99476.16;;;13.07
77331;BMP280;66405;48.328;7.820;2022-12-29T03:03:51;99471.22;;;13.05
77331;BMP280;66405;48.328;7.820;2022-12-29T03:06:32;99470.47;;;13.05
77331;BMP280;66405;48.328;7.820;2022-12-29T03:09:18;99474.41;;;13.04
77331;BMP280;66405;48.328;7.820;2022-12-29T03:11:59;99460.84;;;13.04
77331;BMP280;66405;48.328;7.820;2022-12-29T03:14:39;99452.72;;;13.04
77331;BMP280;66405;48.328;7.820;2022-12-29T03:20:03;99459.34;;;13.03
77331;BMP280;66405;48.328;7.820;2022-12-29T03:22:32;99457.09;;;13.01
77331;BMP280;66405;48.328;7.820;2022-12-29T03:25:14;99458.06;;;12.98
77331;BMP280;66405;48.328;7.820;2022-12-29T03:27:45;99456.09;;;12.99
77331;BMP280;66405;48.328;7.820;2022-12-29T03:30:13;99459.28;;;12.97
77331;BMP280;66405;48.328;7.820;2022-12-29T03:32:45;99452.84;;;12.95
77331;BMP280;66405;48.328;7.820;2022-12-29T03:35:16;99452.56;;;12.93
77331;BMP280;66405;48.328;7.820;2022-12-29T03:37:49;99457.22;;;12.92
77331;BMP280;66405;48.328;7.820;2022-12-29T03:40:16;99451.53;;;12.90
77331;BMP280;66405;48.328;7.820;2022-12-29T03:42:43;99462.38;;;12.90
77331;BMP280;66405;48.328;7.820;2022-12-29T03:45:09;99482.09;;;12.91
77331;BMP280;66405;48.328;7.820;2022-12-29T03:47:36;99481.34;;;12.90
77331;BMP280;66405;48.328;7.820;2022-12-29T03:50:01;99493.25;;;12.93
77331;BMP280;66405;48.328;7.820;2022-12-29T03:52:31;99486.38;;;12.97
77331;BMP280;66405;48.328;7.820;2022-12-29T03:54:57;99484.22;;;13.01
77331;BMP280;66405;48.328;7.820;2022-12-29T03:57:22;99477.13;;;13.04
77331;BMP280;66405;48.328;7.820;2022-12-29T03:59:55;99465.31;;;13.07
77331;BMP280;66405;48.328;7.820;2022-12-29T04:02:21;99465.88;;;13.11
77331;BMP280;66405;48.328;7.820;2022-12-29T04:04:46;99468.66;;;13.17
77331;BMP280;66405;48.328;7.820;2022-12-29T04:07:12;99466.22;;;13.19
77331;BMP280;66405;48.328;7.820;2022-12-29T04:09:39;99454.44;;;13.22
77331;BMP280;66405;48.328;7.820;2022-12-29T04:12:06;99445.81;;;13.23
77331;BMP280;66405;48.328;7.820;2022-12-29T04:14:33;99436.66;;;13.21
77331;BMP280;66405;48.328;7.820;2022-12-29T04:16:59;99432.91;;;13.18
77331;BMP280;66405;48.328;7.820;2022-12-29T04:19:24;99418.63;;;13.18
77331;BMP280;66405;48.328;7.820;2022-12-29T04:21:50;99425.75;;;13.15
77331;BMP280;66405;48.328;7.820;2022-12-29T04:24:16;99427.41;;;13.13
77331;BMP280;66405;48.328;7.820;2022-12-29T04:26:41;99447.63;;;13.12
77331;BMP280;66405;48.328;7.820;2022-12-29T04:29:27;99443.91;;;13.09
77331;BMP280;66405;48.328;7.820;2022-12-29T04:32:08;99434.28;;;13.08
77331;BMP280;66405;48.328;7.820;2022-12-29T04:34:38;99432.22;;;13.03
77331;BMP280;66405;48.328;7.820;2022-12-29T04:37:04;99436.91;;;13.02
77331;BMP280;66405;48.328;7.820;2022-12-29T04:39:30;99440.09;;;13.01
77331;BMP280;66405;48.328;7.820;2022-12-29T04:41:56;99443.28;;;12.99
77331;BMP280;66405;48.328;7.820;2022-12-29T04:44:21;99432.44;;;12.99
77331;BMP280;66405;48.328;7.820;2022-12-29T04:46:55;99443.28;;;12.99
77331;BMP280;66405;48.328;7.820;2022-12-29T04:49:39;99436.34;;;12.98
77331;BMP280;66405;48.328;7.820;2022-12-29T04:52:32;99425.97;;;12.97
77331;BMP280;66405;48.328;7.820;2022-12-29T04:54:57;99430.16;;;12.98
77331;BMP280;66405;48.328;7.820;2022-12-29T04:57:23;99430.16;;;12.98
77331;BMP280;66405;48.328;7.820;2022-12-29T04:59:53;99433.66;;;12.98
77331;BMP280;66405;48.328;7.820;2022-12-29T05:02:19;99436.16;;;13.02
77331;BMP280;66405;48.328;7.820;2022-12-29T05:04:46;99437.16;;;13.04
77331;BMP280;66405;48.328;7.820;2022-12-29T05:07:12;99432.03;;;13.06
77331;BMP280;66405;48.328;7.820;2022-12-29T05:09:37;99433.59;;;13.13
77331;BMP280;66405;48.328;7.820;2022-12-29T05:12:04;99428.19;;;13.13
77331;BMP280;66405;48.328;7.820;2022-12-29T05:14:31;99430.19;;;13.18
77331;BMP280;66405;48.328;7.820;2022-12-29T05:16:57;99430.50;;;13.20
77331;BMP280;66405;48.328;7.820;2022-12-29T05:19:24;99418.91;;;13.20
77331;BMP280;66405;48.328;7.820;2022-12-29T05:21:49;99411.50;;;13.20
77331;BMP280;66405;48.328;7.820;2022-12-29T05:24:15;99409.53;;;13.21
77331;BMP280;66405;48.328;7.820;2022-12-29T05:26:41;99408.50;;;13.18
77331;BMP280;66405;48.328;7.820;2022-12-29T05:29:15;99406.00;;;13.15
77331;BMP280;66405;48.328;7.820;2022-12-29T05:31:41;99396.38;;;13.14
77331;BMP280;66405;48.328;7.820;2022-12-29T05:34:06;99385.22;;;13.12
77331;BMP280;66405;48.328;7.820;2022-12-29T05:36:32;99397.06;;;13.09
77331;BMP280;66405;48.328;7.820;2022-12-29T05:38:59;99401.47;;;13.06
77331;BMP280;66405;48.328;7.820;2022-12-29T05:41:24;99394.06;;;13.06
77331;BMP280;66405;48.328;7.820;2022-12-29T05:44:10;99391.81;;;13.05
77331;BMP280;66405;48.328;7.820;2022-12-29T05:46:46;99388.81;;;13.03
77331;BMP280;66405;48.328;7.820;2022-12-29T05:49:18;99395.50;;;13.02
77331;BMP280;66405;48.328;7.820;2022-12-29T05:51:53;99387.81;;;13.00
77331;BMP280;66405;48.328;7.820;2022-12-29T05:54:19;99398.38;;;12.98
77331;BMP280;66405;48.328;7.820;2022-12-29T05:56:45;99394.19;;;12.97
77331;BMP280;66405;48.328;7.820;2022-12-29T05:59:10;99394.19;;;12.97
77331;BMP280;66405;48.328;7.820;2022-12-29T06:01:36;99380.63;;;12.97
77331;BMP280;66405;48.328;7.820;2022-12-29T06:04:01;99387.75;;;12.95
77331;BMP280;66405;48.328;7.820;2022-12-29T06:06:27;99386.03;;;12.97
77331;BMP280;66405;48.328;7.820;2022-12-29T06:08:52;99387.25;;;12.96
77331;BMP280;66405;48.328;7.820;2022-12-29T06:11:19;99394.19;;;12.97
77331;BMP280;66405;48.328;7.820;2022-12-29T06:13:50;99377.44;;;12.99
77331;BMP280;66405;48.328;7.820;2022-12-29T06:16:15;99380.91;;;12.99
77331;BMP280;66405;48.328;7.820;2022-12-29T06:18:41;99380.44;;;13.01
77331;BMP280;66405;48.328;7.820;2022-12-29T06:21:07;99375.75;;;13.01
77331;BMP280;66405;48.328;7.820;2022-12-29T06:23:34;99381.63;;;13.00
77331;BMP280;66405;48.328;7.820;2022-12-29T06:26:00;99389.03;;;12.99
77331;BMP280;66405;48.328;7.820;2022-12-29T06:28:25;99392.50;;;13.00
77331;BMP280;66405;48.328;7.820;2022-12-29T06:30:51;99386.31;;;12.99
77331;BMP280;66405;48.328;7.820;2022-12-29T06:33:17;99389.03;;;12.99
77331;BMP280;66405;48.328;7.820;2022-12-29T06:35:43;99384.63;;;13.02
77331;BMP280;66405;48.328;7.820;2022-12-29T06:38:09;99384.13;;;13.03
77331;BMP280;66405;48.328;7.820;2022-12-29T06:40:34;99395.28;;;13.05
77331;BMP280;66405;48.328;7.820;2022-12-29T06:43:13;99401.72;;;13.08
77331;BMP280;66405;48.328;7.820;2022-12-29T06:45:55;99383.75;;;13.11
77331;BMP280;66405;48.328;7.820;2022-12-29T06:48:20;99391.41;;;13.12
77331;BMP280;66405;48.328;7.820;2022-12-29T06:50:45;99386.28;;;13.14
77331;BMP280;66405;48.328;7.820;2022-12-29T06:53:11;99397.34;;;13.16
77331;BMP280;66405;48.328;7.820;2022-12-29T06:55:36;99401.38;;;13.21
77331;BMP280;66405;48.328;7.820;2022-12-29T06:58:02;99399.69;;;13.23
77331;BMP280;66405;48.328;7.820;2022-12-29T07:00:28;99399.50;;;13.27
77331;BMP280;66405;48.328;7.820;2022-12-29T07:02:55;99402.72;;;13.31
77331;BMP280;66405;48.328;7.820;2022-12-29T07:05:21;99389.44;;;13.33
77331;BMP280;66405;48.328;7.820;2022-12-29T07:07:46;99385.50;;;13.34
77331;BMP280;66405;48.328;7.820;2022-12-29T07:10:12;99377.91;;;13.38
77331;BMP280;66405;48.328;7.820;2022-12-29T07:12:37;99388.56;;;13.42
77331;BMP280;66405;48.328;7.820;2022-12-29T07:15:03;99391.34;;;13.48
77331;BMP280;66405;48.328;7.820;2022-12-29T07:17:28;99399.56;;;13.53
77331;BMP280;66405;48.328;7.820;2022-12-29T07:19:54;99398.56;;;13.56
77331;BMP280;66405;48.328;7.820;2022-12-29T07:22:19;99399.31;;;13.57
77331;BMP280;66405;48.328;7.820;2022-12-29T07:24:45;99409.72;;;13.58
77331;BMP280;66405;48.328;7.820;2022-12-29T07:27:12;99407.00;;;13.58
77331;BMP280;66405;48.328;7.820;2022-12-29T07:29:38;99409.72;;;13.58
77331;BMP280;66405;48.328;7.820;2022-12-29T07:32:04;99406.25;;;13.58
77331;BMP280;66405;48.328;7.820;2022-12-29T07:34:35;99408.00;;;13.61
77331;BMP280;66405;48.328;7.820;2022-12-29T07:37:00;99409.50;;;13.62
77331;BMP280;66405;48.328;7.820;2022-12-29T07:39:26;99416.69;;;13.65
77331;BMP280;66405;48.328;7.820;2022-12-29T07:41:51;99413.50;;;13.67
77331;BMP280;66405;48.328;7.820;2022-12-29T07:44:19;99416.75;;;13.71
77331;BMP280;66405;48.328;7.820;2022-12-29T07:47:14;99423.94;;;13.74
77331;BMP280;66405;48.328;7.820;2022-12-29T07:49:40;99424.69;;;13.74
77331;BMP280;66405;48.328;7.820;2022-12-29T07:52:05;99423.25;;;13.79
77331;BMP280;66405;48.328;7.820;2022-12-29T07:54:31;99425.03;;;13.82
77331;BMP280;66405;48.328;7.820;2022-12-29T07:56:56;99437.19;;;13.87
77331;BMP280;66405;48.328;7.820;2022-12-29T07:59:22;99437.41;;;13.89
77331;BMP280;66405;48.328;7.820;2022-12-29T08:01:51;99429.81;;;13.93
77331;BMP280;66405;48.328;7.820;2022-12-29T08:04:16;99426.63;;;13.95
77331;BMP280;66405;48.328;7.820;2022-12-29T08:06:42;99436.81;;;14.00
77331;BMP280;66405;48.328;7.820;2022-12-29T08:09:08;99439.78;;;14.02
77331;BMP280;66405;48.328;7.820;2022-12-29T08:11:34;99440.03;;;14.04
77331;BMP280;66405;48.328;7.820;2022-12-29T08:13:59;99453.41;;;14.07
77331;BMP280;66405;48.328;7.820;2022-12-29T08:16:25;99467.53;;;14.12
77331;BMP280;66405;48.328;7.820;2022-12-29T08:18:50;99460.66;;;14.16
77331;BMP280;66405;48.328;7.820;2022-12-29T08:21:15;99468.38;;;14.23
77331;BMP280;66405;48.328;7.820;2022-12-29T08:23:41;99476.13;;;14.31
77331;BMP280;66405;48.328;7.820;2022-12-29T08:26:06;99479.13;;;14.38
77331;BMP280;66405;48.328;7.820;2022-12-29T08:28:33;99485.59;;;14.47
77331;BMP280;66405;48.328;7.820;2022-12-29T08:31:00;99488.38;;;14.52
77331;BMP280;66405;48.328;7.820;2022-12-29T08:33:27;99498.81;;;14.59
77331;BMP280;66405;48.328;7.820;2022-12-29T08:35:59;99496.13;;;14.65
77331;BMP280;66405;48.328;7.820;2022-12-29T08:38:24;99483.09;;;14.69
77331;BMP280;66405;48.328;7.820;2022-12-29T08:40:51;99490.03;;;14.76
77331;BMP280;66405;48.328;7.820;2022-12-29T08:43:16;99490.09;;;14.82
77331;BMP280;66405;48.328;7.820;2022-12-29T08:45:42;99491.34;;;14.86
77331;BMP280;66405;48.328;7.820;2022-12-29T08:48:07;99500.78;;;14.91
77331;BMP280;66405;48.328;7.820;2022-12-29T08:50:33;99469.13;;;14.93
77331;BMP280;66405;48.328;7.820;2022-12-29T08:52:58;99495.38;;;14.97
77331;BMP280;66405;48.328;7.820;2022-12-29T08:55:23;99497.84;;;15.00
77331;BMP280;66405;48.328;7.820;2022-12-29T08:57:51;99514.47;;;15.02
77331;BMP280;66405;48.328;7.820;2022-12-29T09:00:19;99520.66;;;15.08
77331;BMP280;66405;48.328;7.820;2022-12-29T09:02:46;99504.09;;;15.12
77331;BMP280;66405;48.328;7.820;2022-12-29T09:05:11;99510.09;;;15.16
77331;BMP280;66405;48.328;7.820;2022-12-29T09:07:37;99516.78;;;15.21
77331;BMP280;66405;48.328;7.820;2022-12-29T09:10:03;99524.47;;;15.22
77331;BMP280;66405;48.328;7.820;2022-12-29T09:12:29;99524.47;;;15.22
77331;BMP280;66405;48.328;7.820;2022-12-29T09:15:00;99520.00;;;15.25
77331;BMP280;66405;48.328;7.820;2022-12-29T09:17:26;99521.53;;;15.32
77331;BMP280;66405;48.328;7.820;2022-12-29T09:20:15;99525.28;;;15.40
77331;BMP280;66405;48.328;7.820;2022-12-29T09:22:41;99529.53;;;15.46
77331;BMP280;66405;48.328;7.820;2022-12-29T09:25:07;99532.28;;;15.52
77331;BMP280;66405;48.328;7.820;2022-12-29T09:27:34;99520.66;;;15.57
77331;BMP280;66405;48.328;7.820;2022-12-29T09:30:00;99525.63;;;15.59
77331;BMP280;66405;48.328;7.820;2022-12-29T09:32:26;99537.78;;;15.63
77331;BMP280;66405;48.328;7.820;2022-12-29T09:34:51;99543.44;;;15.65
77331;BMP280;66405;48.328;7.820;2022-12-29T09:37:18;99541.97;;;15.70
77331;BMP280;66405;48.328;7.820;2022-12-29T09:39:43;99539.81;;;15.80
77331;BMP280;66405;48.328;7.820;2022-12-29T09:47:34;99535.16;;;16.03
77331;BMP280;66405;48.328;7.820;2022-12-29T09:50:08;99530.44;;;16.04
77331;BMP280;66405;48.328;7.820;2022-12-29T09:52:40;99540.63;;;16.03
77331;BMP280;66405;48.328;7.820;2022-12-29T09:55:14;99527.97;;;16.00
77331;BMP280;66405;48.328;7.820;2022-12-29T09:57:46;99536.13;;;15.94
77331;BMP280;66405;48.328;7.820;2022-12-29T10:00:16;99520.03;;;15.91
77331;BMP280;66405;48.328;7.820;2022-12-29T10:05:36;99530.91;;;15.85
77331;BMP280;66405;48.328;7.820;2022-12-29T10:10:56;99533.09;;;15.75
77331;BMP280;66405;48.328;7.820;2022-12-29T10:16:23;99531.09;;;15.76
77331;BMP280;66405;48.328;7.820;2022-12-29T10:19:01;99535.09;;;15.75
77331;BMP280;66405;48.328;7.820;2022-12-29T10:24:07;99549.41;;;15.70
77331;BMP280;66405;48.328;7.820;2022-12-29T10:26:39;99543.72;;;15.68
77331;BMP280;66405;48.328;7.820;2022-12-29T10:29:27;99547.22;;;15.68
77331;BMP280;66405;48.328;7.820;2022-12-29T10:32:03;99531.38;;;15.78
77331;BMP280;66405;48.328;7.820;2022-12-29T10:34:53;99523.22;;;15.89
77331;BMP280;66405;48.328;7.820;2022-12-29T10:37:27;99520.81;;;16.20
77331;BMP280;66405;48.328;7.820;2022-12-29T10:42:55;99524.47;;;16.90
77331;BMP280;66405;48.328;7.820;2022-12-29T10:45:25;99519.47;;;17.17
77331;BMP280;66405;48.328;7.820;2022-12-29T10:47:59;99516.91;;;17.42
77331;BMP280;66405;48.328;7.820;2022-12-29T10:50:26;99523.59;;;17.40
77331;BMP280;66405;48.328;7.820;2022-12-29T10:52:57;99511.72;;;17.27
77331;BMP280;66405;48.328;7.820;2022-12-29T10:55:27;99507.84;;;17.05
77331;BMP280;66405;48.328;7.820;2022-12-29T10:57:55;99514.84;;;16.83
77331;BMP280;66405;48.328;7.820;2022-12-29T11:00:22;99518.31;;;16.61
77331;BMP280;66405;48.328;7.820;2022-12-29T11:06:10;99525.00;;;16.21
77331;BMP280;66405;48.328;7.820;2022-12-29T11:08:39;99509.91;;;16.14
77331;BMP280;66405;48.328;7.820;2022-12-29T11:11:09;99527.50;;;16.07
77331;BMP280;66405;48.328;7.820;2022-12-29T11:13:47;99518.28;;;15.99
77331;BMP280;66405;48.328;7.820;2022-12-29T11:16:13;99525.97;;;15.89
77331;BMP280;66405;48.328;7.820;2022-12-29T11:18:40;99520.22;;;15.81
77331;BMP280;66405;48.328;7.820;2022-12-29T11:21:37;99514.03;;;15.75
77331;BMP280;66405;48.328;7.820;2022-12-29T11:24:28;99530.34;;;15.70
77331;BMP280;66405;48.328;7.820;2022-12-29T11:26:56;99531.09;;;15.64
77331;BMP280;66405;48.328;7.820;2022-12-29T11:29:39;99515.97;;;15.58
77331;BMP280;66405;48.328;7.820;2022-12-29T11:32:17;99527.56;;;15.53
77331;BMP280;66405;48.328;7.820;2022-12-29T11:34:43;99522.63;;;15.51
77331;BMP280;66405;48.328;7.820;2022-12-29T11:37:18;99539.66;;;15.46
77331;BMP280;66405;48.328;7.820;2022-12-29T11:39:54;99529.28;;;15.44
77331;BMP280;66405;48.328;7.820;2022-12-29T11:42:40;99521.34;;;15.41
77331;BMP280;66405;48.328;7.820;2022-12-29T11:47:38;99524.06;;;15.41
77331;BMP280;66405;48.328;7.820;2022-12-29T11:50:07;99527.88;;;15.66
77331;BMP280;66405;48.328;7.820;2022-12-29T11:52:37;99513.84;;;15.96
77331;BMP280;66405;48.328;7.820;2022-12-29T11:55:18;99508.66;;;16.21
77331;BMP280;66405;48.328;7.820;2022-12-29T11:57:45;99509.41;;;16.38
77331;BMP280;66405;48.328;7.820;2022-12-29T12:00:17;99506.94;;;16.51
77331;BMP280;66405;48.328;7.820;2022-12-29T12:08:14;99489.09;;;16.67
77331;BMP280;66405;48.328;7.820;2022-12-29T12:10:52;99488.81;;;16.77
77331;BMP280;66405;48.328;7.820;2022-12-29T12:16:04;99479.31;;;16.95
77331;BMP280;66405;48.328;7.820;2022-12-29T12:18:37;99489.25;;;16.98
77331;BMP280;66405;48.328;7.820;2022-12-29T12:21:10;99472.38;;;16.99
77331;BMP280;66405;48.328;7.820;2022-12-29T12:23:59;99465.47;;;16.87
77331;BMP280;66405;48.328;7.820;2022-12-29T12:26:34;99476.16;;;16.74
77331;BMP280;66405;48.328;7.820;2022-12-29T12:29:18;99467.25;;;16.62
77331;BMP280;66405;48.328;7.820;2022-12-29T12:31:53;99464.78;;;16.58
77331;BMP280;66405;48.328;7.820;2022-12-29T12:34:25;99457.59;;;16.61
77331;BMP280;66405;48.328;7.820;2022-12-29T12:40:00;99463.03;;;16.66
77331;BMP280;66405;48.328;7.820;2022-12-29T12:53:50;99447.94;;;16.31
77331;BMP280;66405;48.328;7.820;2022-12-29T12:59:06;99443.75;;;16.19
77331;BMP280;66405;48.328;7.820;2022-12-29T13:01:45;99443.75;;;16.13
77331;BMP280;66405;48.328;7.820;2022-12-29T13:04:30;99449.69;;;16.06
77331;BMP280;66405;48.328;7.820;2022-12-29T13:18:13;99415.75;;;16.02
77331;BMP280;66405;48.328;7.820;2022-12-29T13:25:56;99410.31;;;16.07
77331;BMP280;66405;48.328;7.820;2022-12-29T13:33:44;99415.00;;;16.07
77331;BMP280;66405;48.328;7.820;2022-12-29T13:38:46;99426.66;;;15.96
77331;BMP280;66405;48.328;7.820;2022-12-29T13:41:24;99423.91;;;15.90
77331;BMP280;66405;48.328;7.820;2022-12-29T13:43:54;99417.47;;;15.88
77331;BMP280;66405;48.328;7.820;2022-12-29T13:46:27;99419.19;;;15.91
77331;BMP280;66405;48.328;7.820;2022-12-29T13:49:02;99417.94;;;15.97
77331;BMP280;66405;48.328;7.820;2022-12-29T13:51:30;99423.16;;;16.01
77331;BMP280;66405;48.328;7.820;2022-12-29T13:54:29;99405.31;;;16.00
77331;BMP280;66405;48.328;7.820;2022-12-29T13:57:03;99412.75;;;15.99
77331;BMP280;66405;48.328;7.820;2022-12-29T13:59:51;99410.53;;;15.98
77331;BMP280;66405;48.328;7.820;2022-12-29T14:07:45;99414.50;;;15.86
77331;BMP280;66405;48.328;7.820;2022-12-29T14:10:48;99419.94;;;15.80
77331;BMP280;66405;48.328;7.820;2022-12-29T14:13:16;99418.44;;;15.73
77331;BMP280;66405;48.328;7.820;2022-12-29T14:15:52;99420.16;;;15.65
77331;BMP280;66405;48.328;7.820;2022-12-29T14:18:20;99429.31;;;15.62
77331;BMP280;66405;48.328;7.820;2022-12-29T14:36:34;99447.31;;;15.42
77331;BMP280;66405;48.328;7.820;2022-12-29T14:39:00;99449.56;;;15.38
77331;BMP280;66405;48.328;7.820;2022-12-29T14:41:32;99444.34;;;15.35
77331;BMP280;66405;48.328;7.820;2022-12-29T14:46:54;99460.13;;;15.25
77331;BMP280;66405;48.328;7.820;2022-12-29T14:49:26;99468.25;;;15.19
77331;BMP280;66405;48.328;7.820;2022-12-29T14:52:15;99470.72;;;15.11
77331;BMP280;66405;48.328;7.820;2022-12-29T14:54:47;99484.28;;;15.06
77331;BMP280;66405;48.328;7.820;2022-12-29T14:57:21;99490.19;;;14.99
77331;BMP280;66405;48.328;7.820;2022-12-29T14:59:53;99488.94;;;14.94
77331;BMP280;66405;48.328;7.820;2022-12-29T15:02:21;99493.84;;;14.90
77331;BMP280;66405;48.328;7.820;2022-12-29T15:04:47;99498.25;;;14.82
77331;BMP280;66405;48.328;7.820;2022-12-29T15:07:14;99512.75;;;14.73
77331;BMP280;66405;48.328;7.820;2022-12-29T15:09:46;99521.84;;;14.64
77331;BMP280;66405;48.328;7.820;2022-12-29T15:12:41;99520.94;;;14.47
77331;BMP280;66405;48.328;7.820;2022-12-29T15:15:27;99514.13;;;14.25
77331;BMP280;66405;48.328;7.820;2022-12-29T15:17:56;99517.38;;;14.08
77331;BMP280;66405;48.328;7.820;2022-12-29T15:20:30;99533.22;;;13.89
77331;BMP280;66405;48.328;7.820;2022-12-29T15:23:02;99507.31;;;13.68
77331;BMP280;66405;48.328;7.820;2022-12-29T15:25:30;99509.34;;;13.52
77331;BMP280;66405;48.328;7.820;2022-12-29T15:28:01;99513.13;;;13.40
77331;BMP280;66405;48.328;7.820;2022-12-29T15:30:28;99521.13;;;13.29
77331;BMP280;66405;48.328;7.820;2022-12-29T15:32:54;99514.03;;;13.16
77331;BMP280;66405;48.328;7.820;2022-12-29T15:37:52;99505.13;;;12.95
77331;BMP280;66405;48.328;7.820;2022-12-29T15:40:29;99502.22;;;12.84
77331;BMP280;66405;48.328;7.820;2022-12-29T15:45:54;99517.47;;;12.66
77331;BMP280;66405;48.328;7.820;2022-12-29T15:48:22;99528.22;;;12.61
77331;BMP280;66405;48.328;7.820;2022-12-29T15:50:49;99526.16;;;12.55
77331;BMP280;66405;48.328;7.820;2022-12-29T15:53:21;99523.34;;;12.50
77331;BMP280;66405;48.328;7.820;2022-12-29T15:55:51;99529.69;;;12.47
77331;BMP280;66405;48.328;7.820;2022-12-29T15:58:28;99528.09;;;12.40
77331;BMP280;66405;48.328;7.820;2022-12-29T16:00:59;99528.47;;;12.33
77331;BMP280;66405;48.328;7.820;2022-12-29T16:03:32;99523.25;;;12.29
77331;BMP280;66405;48.328;7.820;2022-12-29T16:09:17;99524.91;;;12.27
77331;BMP280;66405;48.328;7.820;2022-12-29T16:11:47;99525.94;;;12.29
77331;BMP280;66405;48.328;7.820;2022-12-29T16:14:20;99529.69;;;12.32
77331;BMP280;66405;48.328;7.820;2022-12-29T16:16:47;99519.84;;;12.34
77331;BMP280;66405;48.328;7.820;2022-12-29T16:21:51;99521.19;;;12.39
77331;BMP280;66405;48.328;7.820;2022-12-29T16:24:23;99525.38;;;12.40
77331;BMP280;66405;48.328;7.820;2022-12-29T16:27:07;99520.72;;;12.41
77331;BMP280;66405;48.328;7.820;2022-12-29T16:29:34;99528.38;;;12.42
77331;BMP280;66405;48.328;7.820;2022-12-29T16:32:00;99523.72;;;12.43
77331;BMP280;66405;48.328;7.820;2022-12-29T16:37:29;99532.81;;;12.40
77331;BMP280;66405;48.328;7.820;2022-12-29T16:39:54;99532.66;;;12.34
77331;BMP280;66405;48.328;7.820;2022-12-29T16:42:45;99545.22;;;12.31
77331;BMP280;66405;48.328;7.820;2022-12-29T16:47:47;99548.84;;;12.28
77331;BMP280;66405;48.328;7.820;2022-12-29T16:50:27;99547.16;;;12.31
77331;BMP280;66405;48.328;7.820;2022-12-29T16:52:56;99549.88;;;12.31